createdAt,value
2023-01-21T00:00:30.509Z,1003.74
2023-01-21T00:01:30.489Z,1003.76
2023-01-21T00:02:30.532Z,1003.81
2023-01-21T00:03:30.520Z,1003.76
2023-01-21T00:04:30.472Z,1003.81
2023-01-21T00:05:30.456Z,1003.80
2023-01-21T00:06:30.425Z,1003.84
2023-01-21T00:07:30.411Z,1003.82
2023-01-21T00:08:30.432Z,1003.87
2023-01-21T00:09:30.390Z,1003.88
2023-01-21T00:10:30.401Z,1003.93
2023-01-21T00:11:30.400Z,1003.97
2023-01-21T00:12:30.358Z,1003.97
2023-01-21T00:13:30.352Z,1004.02
2023-01-21T00:14:30.339Z,1003.94
2023-01-21T00:15:30.400Z,1003.91
2023-01-21T00:16:30.341Z,1003.92
2023-01-21T00:17:30.312Z,1003.99
2023-01-21T00:18:30.359Z,1004.06
2023-01-21T00:19:30.281Z,1004.02
2023-01-21T00:20:30.274Z,1004.05
2023-01-21T00:21:30.302Z,1004.02
2023-01-21T00:22:30.250Z,1004.04
2023-01-21T00:23:30.252Z,1004.01
2023-01-21T00:24:30.220Z,1004.04
2023-01-21T00:25:30.210Z,1004.11
2023-01-21T00:26:30.191Z,1004.07
2023-01-21T00:27:30.211Z,1004.09
2023-01-21T00:28:30.304Z,1004.06
2023-01-21T00:29:30.163Z,1004.08
2023-01-21T00:30:30.292Z,1004.13
2023-01-21T00:31:30.178Z,1004.15
2023-01-21T00:32:30.125Z,1004.18
2023-01-21T00:33:30.175Z,1004.15
2023-01-21T00:34:30.122Z,1004.16
2023-01-21T00:35:30.093Z,1004.16
2023-01-21T00:36:30.091Z,1004.17
2023-01-21T00:37:30.065Z,1004.13
2023-01-21T00:38:30.086Z,1004.19
2023-01-21T00:39:30.054Z,1004.20
2023-01-21T00:40:30.033Z,1004.24
2023-01-21T00:41:30.033Z,1004.22
2023-01-21T00:42:30.014Z,1004.27
2023-01-21T00:43:30.008Z,1004.28
2023-01-21T00:44:30.019Z,1004.30
2023-01-21T00:45:29.997Z,1004.29
2023-01-21T00:46:30.010Z,1004.29
2023-01-21T00:47:29.973Z,1004.38
2023-01-21T00:48:29.971Z,1004.36
2023-01-21T00:49:29.955Z,1004.43
2023-01-21T00:50:29.929Z,1004.44
2023-01-21T00:51:29.928Z,1004.45
2023-01-21T00:52:29.896Z,1004.44
2023-01-21T00:53:29.899Z,1004.47
2023-01-21T00:54:29.873Z,1004.54
2023-01-21T00:55:29.928Z,1004.52
2023-01-21T00:56:29.874Z,1004.52
2023-01-21T00:57:29.839Z,1004.54
2023-01-21T00:58:29.834Z,1004.49
2023-01-21T00:59:29.825Z,1004.48
2023-01-21T01:00:29.812Z,1004.47
2023-01-21T01:01:29.875Z,1004.47
2023-01-21T01:02:29.788Z,1004.54
2023-01-21T01:03:29.793Z,1004.55
2023-01-21T01:04:29.753Z,1004.56
2023-01-21T01:05:29.756Z,1004.58
2023-01-21T01:06:29.753Z,1004.57
2023-01-21T01:07:29.749Z,1004.58
2023-01-21T01:08:29.718Z,1004.58
2023-01-21T01:09:29.693Z,1004.59
2023-01-21T01:10:29.702Z,1004.62
2023-01-21T01:11:29.675Z,1004.64
2023-01-21T01:12:29.673Z,1004.66
2023-01-21T01:13:29.697Z,1004.69
2023-01-21T01:14:29.633Z,1004.81
2023-01-21T01:15:29.623Z,1004.75
2023-01-21T01:16:29.626Z,1004.79
2023-01-21T01:17:29.603Z,1004.79
2023-01-21T01:18:29.613Z,1004.83
2023-01-21T01:19:29.613Z,1004.91
2023-01-21T01:20:29.563Z,1004.83
2023-01-21T01:21:29.568Z,1004.87
2023-01-21T01:22:29.570Z,1004.89
2023-01-21T01:23:29.574Z,1004.93
2023-01-21T01:24:29.566Z,1004.98
2023-01-21T01:25:29.520Z,1004.99
2023-01-21T01:26:29.512Z,1005.04
2023-01-21T01:27:29.484Z,1005.07
2023-01-21T01:28:29.474Z,1005.05
2023-01-21T01:29:29.465Z,1005.13
2023-01-21T01:30:29.496Z,1005.14
2023-01-21T01:31:29.495Z,1005.09
2023-01-21T01:32:29.434Z,1005.16
2023-01-21T01:33:29.430Z,1005.14
2023-01-21T01:34:29.414Z,1005.14
2023-01-21T01:35:29.400Z,1005.16
2023-01-21T01:36:29.404Z,1005.23
2023-01-21T01:37:29.376Z,1005.23
2023-01-21T01:38:29.429Z,1005.18
2023-01-21T01:39:29.353Z,1005.23
2023-01-21T01:40:29.335Z,1005.28
2023-01-21T01:41:29.388Z,1005.29
2023-01-21T01:42:29.322Z,1005.34
2023-01-21T01:43:29.295Z,1005.35
2023-01-21T01:44:29.308Z,1005.32
2023-01-21T01:45:29.300Z,1005.33
2023-01-21T01:46:29.285Z,1005.39
2023-01-21T01:47:29.280Z,1005.35
2023-01-21T01:48:29.272Z,1005.41
2023-01-21T01:49:29.226Z,1005.37
2023-01-21T01:50:29.266Z,1005.41
2023-01-21T01:51:29.215Z,1005.47
2023-01-21T01:52:29.221Z,1005.47
2023-01-21T01:53:29.236Z,1005.51
2023-01-21T01:54:29.179Z,1005.55
2023-01-21T01:55:29.160Z,1005.53
2023-01-21T01:56:29.162Z,1005.56
2023-01-21T01:57:29.145Z,1005.54
2023-01-21T01:58:29.134Z,1005.54
2023-01-21T01:59:29.195Z,1005.52
2023-01-21T02:00:29.348Z,1005.52
2023-01-21T02:01:29.123Z,1005.61
2023-01-21T02:02:29.113Z,1005.59
2023-01-21T02:03:29.071Z,1005.51
2023-01-21T02:04:29.078Z,1005.61
2023-01-21T02:05:29.098Z,1005.56
2023-01-21T02:06:29.039Z,1005.56
2023-01-21T02:07:29.034Z,1005.58
2023-01-21T02:08:29.014Z,1005.62
2023-01-21T02:09:29.002Z,1005.54
2023-01-21T02:10:29.009Z,1005.64
2023-01-21T02:11:28.978Z,1005.66
2023-01-21T02:12:28.967Z,1005.71
2023-01-21T02:13:28.961Z,1005.72
2023-01-21T02:14:28.966Z,1005.74
2023-01-21T02:15:28.936Z,1005.69
2023-01-21T02:16:29.097Z,1005.69
2023-01-21T02:17:28.909Z,1005.69
2023-01-21T02:18:28.904Z,1005.67
2023-01-21T02:19:28.894Z,1005.67
2023-01-21T02:20:28.889Z,1005.67
2023-01-21T02:21:28.862Z,1005.68
2023-01-21T02:22:28.917Z,1005.76
2023-01-21T02:23:28.845Z,1005.73
2023-01-21T02:24:28.838Z,1005.70
2023-01-21T02:25:28.819Z,1005.73
2023-01-21T02:26:28.835Z,1005.71
2023-01-21T02:27:30.955Z,1005.77
2023-01-21T02:28:28.825Z,1005.78
2023-01-21T02:29:28.767Z,1005.81
2023-01-21T02:30:28.757Z,1005.75
2023-01-21T02:31:28.802Z,1005.76
2023-01-21T02:32:28.752Z,1005.75
2023-01-21T02:33:28.741Z,1005.79
2023-01-21T02:34:28.765Z,1005.81
2023-01-21T02:35:28.726Z,1005.79
2023-01-21T02:36:28.727Z,1005.81
2023-01-21T02:37:28.692Z,1005.79
2023-01-21T02:38:28.693Z,1005.80
2023-01-21T02:39:28.670Z,1005.83
2023-01-21T02:40:28.688Z,1005.85
2023-01-21T02:41:28.644Z,1005.79
2023-01-21T02:42:28.657Z,1005.83
2023-01-21T02:43:28.629Z,1005.86
2023-01-21T02:44:28.611Z,1005.82
2023-01-21T02:45:28.610Z,1005.88
2023-01-21T02:46:28.682Z,1005.90
2023-01-21T02:47:28.594Z,1005.91
2023-01-21T02:48:28.561Z,1005.92
2023-01-21T02:49:28.693Z,1005.92
2023-01-21T02:50:28.564Z,1005.91
2023-01-21T02:51:28.587Z,1005.89
2023-01-21T02:52:28.539Z,1005.94
2023-01-21T02:53:29.689Z,1005.92
2023-01-21T02:54:28.508Z,1005.95
2023-01-21T02:55:28.501Z,1005.93
2023-01-21T02:56:28.534Z,1005.92
2023-01-21T02:57:28.517Z,1005.89
2023-01-21T02:58:28.468Z,1005.92
2023-01-21T02:59:28.449Z,1005.91
2023-01-21T03:00:28.454Z,1005.94
2023-01-21T03:01:28.476Z,1006.05
2023-01-21T03:02:28.431Z,1006.04
2023-01-21T03:03:28.449Z,1006.03
2023-01-21T03:04:28.428Z,1006.07
2023-01-21T03:05:28.387Z,1006.02
2023-01-21T03:06:28.380Z,1006.13
2023-01-21T03:07:28.360Z,1006.08
2023-01-21T03:08:28.372Z,1006.11
2023-01-21T03:09:28.382Z,1006.15
2023-01-21T03:10:28.379Z,1006.13
2023-01-21T03:11:28.361Z,1006.16
2023-01-21T03:12:28.327Z,1006.23
2023-01-21T03:13:28.319Z,1006.18
2023-01-21T03:14:28.452Z,1006.21
2023-01-21T03:15:28.287Z,1006.21
2023-01-21T03:16:28.321Z,1006.19
2023-01-21T03:17:28.272Z,1006.21
2023-01-21T03:18:28.241Z,1006.24
2023-01-21T03:19:28.233Z,1006.24
2023-01-21T03:20:28.272Z,1006.24
2023-01-21T03:21:28.316Z,1006.23
2023-01-21T03:22:28.198Z,1006.28
2023-01-21T03:23:28.212Z,1006.27
2023-01-21T03:24:28.185Z,1006.26
2023-01-21T03:25:28.208Z,1006.22
2023-01-21T03:26:28.162Z,1006.23
2023-01-21T03:27:28.139Z,1006.25
2023-01-21T03:28:28.172Z,1006.22
2023-01-21T03:29:28.144Z,1006.20
2023-01-21T03:30:28.100Z,1006.27
2023-01-21T03:31:28.139Z,1006.30
2023-01-21T03:32:28.078Z,1006.19
2023-01-21T03:33:28.094Z,1006.27
2023-01-21T03:34:28.097Z,1006.20
2023-01-21T03:35:28.072Z,1006.31
2023-01-21T03:36:28.046Z,1006.29
2023-01-21T03:37:28.075Z,1006.23
2023-01-21T03:38:28.021Z,1006.32
2023-01-21T03:39:28.949Z,1006.28
2023-01-21T03:40:28.000Z,1006.33
2023-01-21T03:41:27.974Z,1006.31
2023-01-21T03:42:28.030Z,1006.30
2023-01-21T03:43:27.992Z,1006.25
2023-01-21T03:44:27.967Z,1006.30
2023-01-21T03:45:27.989Z,1006.29
2023-01-21T03:46:28.059Z,1006.29
2023-01-21T03:47:27.952Z,1006.36
2023-01-21T03:48:28.381Z,1006.37
2023-01-21T03:49:27.890Z,1006.33
2023-01-21T03:50:27.921Z,1006.30
2023-01-21T03:51:27.884Z,1006.28
2023-01-21T03:52:27.862Z,1006.29
2023-01-21T03:53:27.852Z,1006.33
2023-01-21T03:54:27.910Z,1006.31
2023-01-21T03:55:27.837Z,1006.32
2023-01-21T03:56:27.845Z,1006.35
2023-01-21T03:57:27.813Z,1006.30
2023-01-21T03:58:27.802Z,1006.39
2023-01-21T03:59:27.785Z,1006.35
2023-01-21T04:00:27.812Z,1006.36
2023-01-21T04:01:27.778Z,1006.41
2023-01-21T04:02:27.766Z,1006.39
2023-01-21T04:03:27.782Z,1006.41
2023-01-21T04:04:27.792Z,1006.40
2023-01-21T04:05:27.851Z,1006.43
2023-01-21T04:06:27.712Z,1006.49
2023-01-21T04:07:27.691Z,1006.47
2023-01-21T04:08:27.789Z,1006.49
2023-01-21T04:09:27.679Z,1006.43
2023-01-21T04:10:27.679Z,1006.48
2023-01-21T04:11:27.722Z,1006.46
2023-01-21T04:12:27.661Z,1006.44
2023-01-21T04:13:27.632Z,1006.42
2023-01-21T04:14:27.634Z,1006.46
2023-01-21T04:15:27.739Z,1006.48
2023-01-21T04:16:30.554Z,1006.52
2023-01-21T04:17:27.612Z,1006.52
2023-01-21T04:18:27.572Z,1006.55
2023-01-21T04:19:27.549Z,1006.55
2023-01-21T04:20:27.541Z,1006.57
2023-01-21T04:21:27.555Z,1006.62
2023-01-21T04:22:27.561Z,1006.58
2023-01-21T04:23:27.513Z,1006.60
2023-01-21T04:24:27.546Z,1006.55
2023-01-21T04:25:27.533Z,1006.49
2023-01-21T04:26:27.514Z,1006.56
2023-01-21T04:27:27.503Z,1006.61
2023-01-21T04:28:27.484Z,1006.55
2023-01-21T04:29:27.463Z,1006.55
2023-01-21T04:30:27.443Z,1006.58
2023-01-21T04:31:27.490Z,1006.58
2023-01-21T04:32:27.437Z,1006.57
2023-01-21T04:33:27.402Z,1006.61
2023-01-21T04:34:27.455Z,1006.51
2023-01-21T04:35:27.442Z,1006.50
2023-01-21T04:36:27.384Z,1006.54
2023-01-21T04:37:27.370Z,1006.52
2023-01-21T04:38:27.374Z,1006.56
2023-01-21T04:39:27.352Z,1006.59
2023-01-21T04:40:27.354Z,1006.58
2023-01-21T04:41:27.305Z,1006.59
2023-01-21T04:42:27.334Z,1006.59
2023-01-21T04:43:27.294Z,1006.63
2023-01-21T04:44:27.282Z,1006.64
2023-01-21T04:45:27.316Z,1006.58
2023-01-21T04:46:27.267Z,1006.64
2023-01-21T04:47:27.250Z,1006.58
2023-01-21T04:48:27.263Z,1006.67
2023-01-21T04:49:27.245Z,1006.68
2023-01-21T04:50:27.330Z,1006.72
2023-01-21T04:51:27.230Z,1006.70
2023-01-21T04:52:27.184Z,1006.77
2023-01-21T04:53:27.182Z,1006.83
2023-01-21T04:54:27.273Z,1006.74
2023-01-21T04:55:27.208Z,1006.75
2023-01-21T04:56:27.166Z,1006.79
2023-01-21T04:57:27.196Z,1006.78
2023-01-21T04:58:27.123Z,1006.75
2023-01-21T04:59:27.122Z,1006.82
2023-01-21T05:00:27.125Z,1006.82
2023-01-21T05:01:27.153Z,1006.80
2023-01-21T05:02:27.141Z,1006.82
2023-01-21T05:03:27.097Z,1006.78
2023-01-21T05:04:27.093Z,1006.85
2023-01-21T05:05:27.034Z,1006.85
2023-01-21T05:06:27.035Z,1006.84
2023-01-21T05:07:27.035Z,1006.84
2023-01-21T05:08:27.033Z,1006.83
2023-01-21T05:09:27.029Z,1006.86
2023-01-21T05:10:26.995Z,1006.85
2023-01-21T05:11:26.979Z,1006.89
2023-01-21T05:12:26.987Z,1006.93
2023-01-21T05:13:27.146Z,1006.93
2023-01-21T05:14:26.950Z,1006.90
2023-01-21T05:15:27.054Z,1006.83
2023-01-21T05:16:38.103Z,1006.90
2023-01-21T05:17:26.924Z,1006.90
2023-01-21T05:18:26.903Z,1006.91
2023-01-21T05:19:26.902Z,1006.95
2023-01-21T05:20:26.877Z,1006.95
2023-01-21T05:21:26.921Z,1006.94
2023-01-21T05:22:26.862Z,1006.89
2023-01-21T05:23:26.871Z,1006.87
2023-01-21T05:24:26.869Z,1006.88
2023-01-21T05:25:26.896Z,1006.87
2023-01-21T05:26:26.795Z,1006.89
2023-01-21T05:27:26.830Z,1006.98
2023-01-21T05:28:26.788Z,1006.94
2023-01-21T05:29:26.777Z,1006.94
2023-01-21T05:30:26.762Z,1006.93
2023-01-21T05:31:26.854Z,1006.93
2023-01-21T05:32:26.738Z,1006.93
2023-01-21T05:33:26.749Z,1006.93
2023-01-21T05:34:26.729Z,1006.94
2023-01-21T05:35:26.721Z,1006.95
2023-01-21T05:36:26.685Z,1006.92
2023-01-21T05:37:26.725Z,1007.00
2023-01-21T05:38:26.697Z,1006.97
2023-01-21T05:39:26.656Z,1007.01
2023-01-21T05:40:26.644Z,1007.00
2023-01-21T05:41:26.644Z,1006.98
2023-01-21T05:42:26.628Z,1006.99
2023-01-21T05:43:26.638Z,1007.04
2023-01-21T05:44:26.634Z,1007.04
2023-01-21T05:45:26.589Z,1007.03
2023-01-21T05:46:26.688Z,1007.07
2023-01-21T05:47:26.578Z,1007.06
2023-01-21T05:48:26.571Z,1007.07
2023-01-21T05:49:26.560Z,1007.10
2023-01-21T05:50:26.610Z,1007.07
2023-01-21T05:51:26.525Z,1007.13
2023-01-21T05:52:26.556Z,1007.11
2023-01-21T05:53:26.520Z,1007.12
2023-01-21T05:54:26.495Z,1007.15
2023-01-21T05:55:26.491Z,1007.07
2023-01-21T05:56:26.685Z,1007.14
2023-01-21T05:57:26.461Z,1007.16
2023-01-21T05:58:26.617Z,1007.23
2023-01-21T05:59:26.459Z,1007.19
2023-01-21T06:00:26.463Z,1007.16
2023-01-21T06:01:26.412Z,1007.16
2023-01-21T06:02:26.521Z,1007.14
2023-01-21T06:03:26.504Z,1007.19
2023-01-21T06:04:26.391Z,1007.18
2023-01-21T06:05:26.373Z,1007.16
2023-01-21T06:06:26.367Z,1007.20
2023-01-21T06:07:26.345Z,1007.20
2023-01-21T06:08:26.434Z,1007.23
2023-01-21T06:09:26.339Z,1007.23
2023-01-21T06:10:26.318Z,1007.32
2023-01-21T06:11:26.299Z,1007.29
2023-01-21T06:12:26.297Z,1007.30
2023-01-21T06:13:26.313Z,1007.33
2023-01-21T06:14:26.314Z,1007.32
2023-01-21T06:15:26.259Z,1007.39
2023-01-21T06:16:26.261Z,1007.36
2023-01-21T06:17:26.243Z,1007.32
2023-01-21T06:18:26.236Z,1007.39
2023-01-21T06:19:26.245Z,1007.37
2023-01-21T06:20:26.207Z,1007.37
2023-01-21T06:21:26.197Z,1007.38
2023-01-21T06:22:26.215Z,1007.40
2023-01-21T06:23:26.167Z,1007.42
2023-01-21T06:24:26.192Z,1007.41
2023-01-21T06:25:26.196Z,1007.47
2023-01-21T06:26:27.223Z,1007.55
2023-01-21T06:27:26.135Z,1007.54
2023-01-21T06:28:26.116Z,1007.53
2023-01-21T06:29:26.107Z,1007.47
2023-01-21T06:30:26.169Z,1007.57
2023-01-21T06:31:26.211Z,1007.55
2023-01-21T06:32:26.066Z,1007.59
2023-01-21T06:33:26.068Z,1007.50
2023-01-21T06:34:26.038Z,1007.55
2023-01-21T06:35:26.036Z,1007.56
2023-01-21T06:36:26.037Z,1007.58
2023-01-21T06:37:26.021Z,1007.56
2023-01-21T06:38:26.029Z,1007.63
2023-01-21T06:39:25.996Z,1007.61
2023-01-21T06:40:25.969Z,1007.64
2023-01-21T06:41:26.000Z,1007.68
2023-01-21T06:42:25.964Z,1007.59
2023-01-21T06:43:25.939Z,1007.62
2023-01-21T06:44:26.012Z,1007.60
2023-01-21T06:45:25.937Z,1007.62
2023-01-21T06:46:25.973Z,1007.62
2023-01-21T06:47:25.932Z,1007.63
2023-01-21T06:48:25.901Z,1007.66
2023-01-21T06:49:25.891Z,1007.63
2023-01-21T06:50:25.883Z,1007.70
2023-01-21T06:51:25.871Z,1007.60
2023-01-21T06:52:25.845Z,1007.79
2023-01-21T06:53:25.870Z,1007.74
2023-01-21T06:54:26.157Z,1007.75
2023-01-21T06:55:25.830Z,1007.71
2023-01-21T06:56:25.837Z,1007.73
2023-01-21T06:57:25.808Z,1007.74
2023-01-21T06:58:25.779Z,1007.69
2023-01-21T06:59:25.837Z,1007.68
2023-01-21T07:00:25.788Z,1007.74
2023-01-21T07:01:25.768Z,1007.70
2023-01-21T07:02:25.776Z,1007.75
2023-01-21T07:03:25.708Z,1007.74
2023-01-21T07:04:25.715Z,1007.70
2023-01-21T07:05:25.717Z,1007.80
2023-01-21T07:06:25.679Z,1007.81
2023-01-21T07:07:25.683Z,1007.88
2023-01-21T07:08:25.664Z,1007.86
2023-01-21T07:09:25.733Z,1007.87
2023-01-21T07:10:25.636Z,1007.76
2023-01-21T07:11:25.673Z,1007.86
2023-01-21T07:12:25.633Z,1007.79
2023-01-21T07:13:25.622Z,1007.80
2023-01-21T07:14:25.602Z,1007.82
2023-01-21T07:15:25.581Z,1007.81
2023-01-21T07:16:25.662Z,1007.93
2023-01-21T07:17:25.565Z,1007.92
2023-01-21T07:18:25.559Z,1007.90
2023-01-21T07:19:28.077Z,1007.93
2023-01-21T07:20:25.519Z,1007.96
2023-01-21T07:21:25.509Z,1007.88
2023-01-21T07:22:25.536Z,1008.00
2023-01-21T07:23:25.501Z,1007.96
2023-01-21T07:24:25.514Z,1007.97
2023-01-21T07:25:25.499Z,1007.97
2023-01-21T07:26:25.470Z,1008.03
2023-01-21T07:27:25.465Z,1008.03
2023-01-21T07:28:25.473Z,1008.03
2023-01-21T07:29:25.430Z,1008.02
2023-01-21T07:30:25.432Z,1008.00
2023-01-21T07:31:25.462Z,1008.04
2023-01-21T07:32:25.392Z,1008.05
2023-01-21T07:33:25.389Z,1008.11
2023-01-21T07:34:25.409Z,1008.14
2023-01-21T07:35:25.356Z,1008.13
2023-01-21T07:36:25.360Z,1008.04
2023-01-21T07:37:25.334Z,1008.11
2023-01-21T07:38:25.350Z,1008.07
2023-01-21T07:39:25.324Z,1008.08
2023-01-21T07:40:25.333Z,1008.11
2023-01-21T07:41:25.291Z,1008.06
2023-01-21T07:42:25.295Z,1008.12
2023-01-21T07:43:25.302Z,1008.08
2023-01-21T07:44:25.263Z,1008.08
2023-01-21T07:45:25.281Z,1008.13
2023-01-21T07:46:25.308Z,1008.15
2023-01-21T07:47:25.227Z,1008.17
2023-01-21T07:48:25.212Z,1008.20
2023-01-21T07:49:25.201Z,1008.21
2023-01-21T07:50:25.187Z,1008.20
2023-01-21T07:51:25.225Z,1008.16
2023-01-21T07:52:25.171Z,1008.23
2023-01-21T07:53:25.142Z,1008.19
2023-01-21T07:54:25.157Z,1008.24
2023-01-21T07:55:25.133Z,1008.25
2023-01-21T07:56:25.122Z,1008.26
2023-01-21T07:57:25.131Z,1008.31
2023-01-21T07:58:25.102Z,1008.27
2023-01-21T07:59:25.276Z,1008.26
2023-01-21T08:00:25.077Z,1008.26
2023-01-21T08:01:25.537Z,1008.26
2023-01-21T08:02:25.151Z,1008.28
2023-01-21T08:03:25.038Z,1008.34
2023-01-21T08:04:25.024Z,1008.31
2023-01-21T08:05:25.051Z,1008.29
2023-01-21T08:06:25.013Z,1008.29
2023-01-21T08:07:24.991Z,1008.31
2023-01-21T08:08:25.002Z,1008.38
2023-01-21T08:09:24.970Z,1008.30
2023-01-21T08:10:24.994Z,1008.35
2023-01-21T08:11:24.936Z,1008.32
2023-01-21T08:12:27.167Z,1008.37
2023-01-21T08:13:24.936Z,1008.34
2023-01-21T08:14:24.919Z,1008.33
2023-01-21T08:15:24.904Z,1008.34
2023-01-21T08:16:24.936Z,1008.36
2023-01-21T08:17:24.872Z,1008.37
2023-01-21T08:18:24.873Z,1008.35
2023-01-21T08:19:24.843Z,1008.37
2023-01-21T08:20:24.862Z,1008.37
2023-01-21T08:21:24.825Z,1008.43
2023-01-21T08:22:24.801Z,1008.40
2023-01-21T08:23:24.823Z,1008.36
2023-01-21T08:24:24.782Z,1008.43
2023-01-21T08:25:24.793Z,1008.49
2023-01-21T08:26:25.815Z,1008.42
2023-01-21T08:27:24.810Z,1008.40
2023-01-21T08:28:24.762Z,1008.42
2023-01-21T08:29:25.712Z,1008.42
2023-01-21T08:30:24.743Z,1008.41
2023-01-21T08:31:24.743Z,1008.37
2023-01-21T08:32:24.764Z,1008.39
2023-01-21T08:33:24.680Z,1008.42
2023-01-21T08:34:24.687Z,1008.40
2023-01-21T08:35:24.671Z,1008.45
2023-01-21T08:36:25.906Z,1008.44
2023-01-21T08:37:24.681Z,1008.46
2023-01-21T08:38:24.654Z,1008.47
2023-01-21T08:39:33.135Z,1008.44
2023-01-21T08:40:24.595Z,1008.48
2023-01-21T08:41:24.592Z,1008.45
2023-01-21T08:42:24.597Z,1008.56
2023-01-21T08:43:24.565Z,1008.49
2023-01-21T08:44:24.574Z,1008.53
2023-01-21T08:45:24.576Z,1008.61
2023-01-21T08:46:24.536Z,1008.53
2023-01-21T08:47:24.548Z,1008.58
2023-01-21T08:48:24.569Z,1008.54
2023-01-21T08:49:24.510Z,1008.65
2023-01-21T08:50:24.588Z,1008.62
2023-01-21T08:51:24.512Z,1008.66
2023-01-21T08:52:24.473Z,1008.69
2023-01-21T08:53:24.473Z,1008.68
2023-01-21T08:54:24.449Z,1008.77
2023-01-21T08:55:24.444Z,1008.74
2023-01-21T08:56:24.428Z,1008.74
2023-01-21T08:57:24.402Z,1008.69
2023-01-21T08:58:24.404Z,1008.75
2023-01-21T08:59:24.398Z,1008.70
2023-01-21T09:00:24.383Z,1008.70
2023-01-21T09:01:24.422Z,1008.70
2023-01-21T09:02:24.404Z,1008.70
2023-01-21T09:03:24.349Z,1008.79
2023-01-21T09:04:24.348Z,1008.74
2023-01-21T09:05:24.344Z,1008.80
2023-01-21T09:06:24.361Z,1008.73
2023-01-21T09:07:24.284Z,1008.79
2023-01-21T09:08:24.296Z,1008.79
2023-01-21T09:09:24.274Z,1008.80
2023-01-21T09:10:24.290Z,1008.86
2023-01-21T09:11:24.244Z,1008.84
2023-01-21T09:12:24.287Z,1008.86
2023-01-21T09:13:24.226Z,1008.73
2023-01-21T09:14:24.216Z,1008.81
2023-01-21T09:15:24.681Z,1008.83
2023-01-21T09:16:30.566Z,1008.90
2023-01-21T09:17:24.207Z,1008.82
2023-01-21T09:18:24.212Z,1008.87
2023-01-21T09:19:24.222Z,1008.91
2023-01-21T09:20:24.143Z,1008.88
2023-01-21T09:21:24.133Z,1008.88
2023-01-21T09:22:24.127Z,1008.87
2023-01-21T09:23:24.455Z,1008.90
2023-01-21T09:24:24.109Z,1008.90
2023-01-21T09:25:24.093Z,1008.87
2023-01-21T09:26:24.093Z,1008.90
2023-01-21T09:27:24.066Z,1008.81
2023-01-21T09:28:24.057Z,1008.90
2023-01-21T09:29:24.767Z,1008.93
2023-01-21T09:30:24.177Z,1008.91
2023-01-21T09:31:24.055Z,1008.98
2023-01-21T09:32:24.031Z,1009.02
2023-01-21T09:33:24.002Z,1008.93
2023-01-21T09:34:24.018Z,1008.97
2023-01-21T09:35:23.973Z,1009.04
2023-01-21T09:36:23.973Z,1009.01
2023-01-21T09:37:23.945Z,1009.04
2023-01-21T09:38:23.950Z,1009.03
2023-01-21T09:39:23.939Z,1009.06
2023-01-21T09:40:23.938Z,1008.97
2023-01-21T09:41:24.046Z,1009.06
2023-01-21T09:42:23.896Z,1009.04
2023-01-21T09:43:23.883Z,1009.10
2023-01-21T09:44:23.871Z,1009.07
2023-01-21T09:45:23.885Z,1009.15
2023-01-21T09:46:23.871Z,1009.08
2023-01-21T09:47:23.873Z,1009.12
2023-01-21T09:48:23.828Z,1009.14
2023-01-21T09:49:24.086Z,1009.13
2023-01-21T09:50:23.813Z,1009.17
2023-01-21T09:51:23.834Z,1009.15
2023-01-21T09:52:23.809Z,1009.15
2023-01-21T09:53:23.767Z,1009.20
2023-01-21T09:54:23.757Z,1009.17
2023-01-21T09:55:23.751Z,1009.17
2023-01-21T09:56:23.755Z,1009.20
2023-01-21T09:57:23.758Z,1009.16
2023-01-21T09:58:23.726Z,1009.17
2023-01-21T09:59:23.710Z,1009.27
2023-01-21T10:00:23.703Z,1009.24
2023-01-21T10:01:23.759Z,1009.24
2023-01-21T10:02:23.681Z,1009.27
2023-01-21T10:03:23.890Z,1009.24
2023-01-21T10:04:23.731Z,1009.22
2023-01-21T10:05:23.629Z,1009.24
2023-01-21T10:06:23.677Z,1009.22
2023-01-21T10:07:23.659Z,1009.19
2023-01-21T10:08:23.629Z,1009.16
2023-01-21T10:09:23.620Z,1009.18
2023-01-21T10:10:23.640Z,1009.18
2023-01-21T10:11:23.561Z,1009.16
2023-01-21T10:12:23.598Z,1009.14
2023-01-21T10:13:23.587Z,1009.11
2023-01-21T10:14:23.534Z,1009.18
2023-01-21T10:15:23.538Z,1009.16
2023-01-21T10:16:23.518Z,1009.17
2023-01-21T10:17:23.506Z,1009.14
2023-01-21T10:18:23.481Z,1009.12
2023-01-21T10:19:23.501Z,1009.12
2023-01-21T10:20:23.522Z,1009.06
2023-01-21T10:21:23.478Z,1009.15
2023-01-21T10:22:23.442Z,1009.19
2023-01-21T10:23:23.442Z,1009.13
2023-01-21T10:24:23.421Z,1009.16
2023-01-21T10:25:23.422Z,1009.12
2023-01-21T10:26:23.421Z,1009.12
2023-01-21T10:27:23.406Z,1009.14
2023-01-21T10:28:23.417Z,1009.20
2023-01-21T10:29:23.412Z,1009.17
2023-01-21T10:30:23.376Z,1009.11
2023-01-21T10:31:23.453Z,1009.16
2023-01-21T10:32:23.349Z,1009.17
2023-01-21T10:33:23.313Z,1009.19
2023-01-21T10:34:23.305Z,1009.18
2023-01-21T10:35:23.310Z,1009.16
2023-01-21T10:36:23.342Z,1009.14
2023-01-21T10:37:23.265Z,1009.19
2023-01-21T10:38:23.300Z,1009.19
2023-01-21T10:39:23.259Z,1009.22
2023-01-21T10:40:23.251Z,1009.19
2023-01-21T10:41:23.220Z,1009.20
2023-01-21T10:42:23.219Z,1009.17
2023-01-21T10:43:23.301Z,1009.21
2023-01-21T10:44:23.312Z,1009.20
2023-01-21T10:45:23.171Z,1009.19
2023-01-21T10:46:23.245Z,1009.23
2023-01-21T10:47:23.162Z,1009.19
2023-01-21T10:48:23.144Z,1009.22
2023-01-21T10:49:23.174Z,1009.22
2023-01-21T10:50:23.209Z,1009.26
2023-01-21T10:51:23.154Z,1009.17
2023-01-21T10:52:23.101Z,1009.19
2023-01-21T10:53:23.082Z,1009.12
2023-01-21T10:54:23.071Z,1009.25
2023-01-21T10:55:23.091Z,1009.24
2023-01-21T10:56:23.082Z,1009.24
2023-01-21T10:57:23.173Z,1009.21
2023-01-21T10:58:23.026Z,1009.27
2023-01-21T10:59:23.024Z,1009.19
2023-01-21T11:00:23.016Z,1009.13
2023-01-21T11:01:23.120Z,1009.17
2023-01-21T11:02:23.044Z,1009.18
2023-01-21T11:03:22.994Z,1009.14
2023-01-21T11:04:22.957Z,1009.14
2023-01-21T11:05:22.971Z,1009.18
2023-01-21T11:06:22.926Z,1009.12
2023-01-21T11:07:22.945Z,1009.18
2023-01-21T11:08:22.945Z,1009.13
2023-01-21T11:09:22.895Z,1009.14
2023-01-21T11:10:22.901Z,1009.20
2023-01-21T11:11:22.872Z,1009.17
2023-01-21T11:12:22.883Z,1009.16
2023-01-21T11:13:22.884Z,1009.14
2023-01-21T11:14:22.832Z,1009.18
2023-01-21T11:15:22.823Z,1009.20
2023-01-21T11:16:22.812Z,1009.23
2023-01-21T11:17:22.813Z,1009.27
2023-01-21T11:18:22.821Z,1009.23
2023-01-21T11:19:22.799Z,1009.29
2023-01-21T11:20:22.795Z,1009.22
2023-01-21T11:21:22.775Z,1009.30
2023-01-21T11:22:22.846Z,1009.25
2023-01-21T11:23:22.740Z,1009.22
2023-01-21T11:24:22.745Z,1009.22
2023-01-21T11:25:22.717Z,1009.24
2023-01-21T11:26:22.905Z,1009.22
2023-01-21T11:27:22.715Z,1009.23
2023-01-21T11:28:22.694Z,1009.12
2023-01-21T11:29:22.694Z,1009.13
2023-01-21T11:30:44.212Z,1009.18
2023-01-21T11:31:23.730Z,1009.21
2023-01-21T11:32:22.723Z,1009.24
2023-01-21T11:33:22.626Z,1009.20
2023-01-21T11:34:22.623Z,1009.22
2023-01-21T11:35:22.667Z,1009.22
2023-01-21T11:36:22.628Z,1009.22
2023-01-21T11:37:22.611Z,1009.16
2023-01-21T11:38:22.566Z,1009.19
2023-01-21T11:39:22.580Z,1009.17
2023-01-21T11:40:23.023Z,1009.18
2023-01-21T11:41:22.552Z,1009.21
2023-01-21T11:42:22.601Z,1009.12
2023-01-21T11:43:22.518Z,1009.15
2023-01-21T11:44:22.501Z,1009.17
2023-01-21T11:45:22.484Z,1009.13
2023-01-21T11:46:22.570Z,1009.30
2023-01-21T11:47:22.474Z,1009.23
2023-01-21T11:48:22.448Z,1009.28
2023-01-21T11:49:22.444Z,1009.28
2023-01-21T11:50:22.437Z,1009.28
2023-01-21T11:51:22.482Z,1009.29
2023-01-21T11:52:22.415Z,1009.30
2023-01-21T11:53:22.488Z,1009.28
2023-01-21T11:54:22.390Z,1009.30
2023-01-21T11:55:22.375Z,1009.37
2023-01-21T11:56:22.375Z,1009.33
2023-01-21T11:57:22.367Z,1009.30
2023-01-21T11:58:22.422Z,1009.33
2023-01-21T11:59:22.353Z,1009.31
2023-01-21T12:00:22.304Z,1009.36
2023-01-21T12:01:22.306Z,1009.31
2023-01-21T12:02:22.390Z,1009.31
2023-01-21T12:03:22.314Z,1009.26
2023-01-21T12:04:22.287Z,1009.23
2023-01-21T12:05:22.282Z,1009.28